10chiemaru — JD2376 — position and weather

sailwx.info

Track history (hours):
 
Tides and Currents Weather Stations Pressure Air Temp Water Temp Dewpoint Dewpoint Depression Visibility Wind Speed Wind Dir Waves Ship Positions

10chiemaru

Last reported at 2014-Dec-18 14:32 UTC. Time now 2014-Dec-22 06:22 UTC.
Position N 35°17' E 139°45'.

Length 72 m; draft 3.8 m.

Type: Ship. MMSI: 431000147.

Date/timePositionNaut miles runAvg speedWind from/ knotsBaromVisibWave heightAir tempDewpointWater temp
2014-Dec-18 14:32N 35°17' E 139°45'5 5.2
2014-Dec-18 13:33N 35°22' E 139°44'0 0.0
2014-Dec-18 12:33N 35°22' E 139°44'0 0.0
2014-Dec-18 11:33N 35°22' E 139°44'0 0.0
2014-Dec-18 10:33N 35°22' E 139°44'0 0.0
2014-Dec-18 09:33N 35°22' E 139°44'0 0.0
2014-Dec-18 08:33N 35°22' E 139°44'0 0.0
2014-Dec-18 07:33N 35°22' E 139°44'0 0.0
2014-Dec-18 06:33N 35°22' E 139°44'4 4.3
2014-Dec-18 05:33N 35°24' E 139°40'0 0.0
2014-Dec-18 04:33N 35°24' E 139°40'0 0.0
2014-Dec-18 03:33N 35°24' E 139°40'0 0.0
2014-Dec-18 02:33N 35°24' E 139°40'4 3.7
2014-Dec-18 01:34N 35°22' E 139°43'0 0.4
2014-Dec-18 00:33N 35°22' E 139°44'0 0.1
2014-Dec-17 23:33N 35°22' E 139°44'0 0.0
2014-Dec-17 22:33N 35°22' E 139°44'0 0.0
2014-Dec-17 21:30N 35°22' E 139°44'0 0.0
2014-Dec-17 20:33N 35°22' E 139°44'0 0.1
2014-Dec-17 19:34N 35°22' E 139°44'0 0.0
2014-Dec-17 18:33N 35°22' E 139°44'0 0.0
2014-Dec-17 17:32N 35°22' E 139°44'0 0.1
2014-Dec-17 16:33N 35°22' E 139°44'0 0.0
2014-Dec-17 15:33N 35°22' E 139°44'0 0.0
2014-Dec-17 14:32N 35°22' E 139°44'0 0.0
2014-Dec-17 13:28N 35°22' E 139°44'0 0.0
2014-Dec-17 12:33N 35°22' E 139°44'0 0.0
2014-Dec-17 11:32N 35°22' E 139°44'0 0.0
2014-Dec-17 10:34N 35°22' E 139°44'0 0.0
2014-Dec-17 09:33N 35°22' E 139°44'0 0.0
2014-Dec-17 08:32N 35°22' E 139°44'0 0.0
2014-Dec-17 07:33N 35°22' E 139°44'0 0.0
2014-Dec-17 06:33N 35°22' E 139°44'0 0.0
2014-Dec-17 05:33N 35°22' E 139°44'0 0.0
2014-Dec-17 04:28N 35°22' E 139°44'0 0.0
2014-Dec-17 03:34N 35°22' E 139°44'0 0.0
2014-Dec-17 02:33N 35°22' E 139°44'0 0.0
2014-Dec-17 01:34N 35°22' E 139°44'0 0.0
2014-Dec-17 00:32N 35°22' E 139°44'0 0.0
2014-Dec-16 23:33N 35°22' E 139°44'0 0.0
2014-Dec-16 22:33N 35°22' E 139°44'0 0.0
2014-Dec-16 21:34N 35°22' E 139°44'0 0.0
2014-Dec-16 20:33N 35°22' E 139°44'0 0.0
2014-Dec-16 19:33N 35°22' E 139°44'0 0.0
2014-Dec-16 18:26N 35°22' E 139°44'0 0.0
2014-Dec-16 17:33N 35°22' E 139°44'0 0.0
2014-Dec-16 16:32N 35°22' E 139°44'0 0.0
2014-Dec-16 15:32N 35°22' E 139°44'0 0.0
2014-Dec-16 14:33N 35°22' E 139°44'0 0.1
2014-Dec-16 13:31N 35°22' E 139°44'0 0.1
2014-Dec-16 12:33N 35°22' E 139°44'0 0.1
2014-Dec-16 11:33N 35°22' E 139°44'0 0.0
2014-Dec-16 10:32N 35°22' E 139°44'0 0.0
2014-Dec-16 09:32N 35°22' E 139°44'1 0.6
2014-Dec-16 08:34N 35°21' E 139°44'  
2014-Dec-09 12:18N 35°13' E 139°46'912.6
2014-Dec-09 11:33N 35°22' E 139°42'10 9.7
2014-Dec-09 10:33N 35°31' E 139°46'0 0.1
2014-Dec-09 09:33N 35°31' E 139°46'0 0.0
2014-Dec-09 08:33N 35°31' E 139°46'0 0.0
2014-Dec-09 07:27N 35°31' E 139°46'2 2.7
2014-Dec-09 06:33N 35°29' E 139°48'9 8.8
2014-Dec-09 05:33N 35°24' E 139°40'1 0.5
2014-Dec-09 04:33N 35°24' E 139°40'0 0.0
2014-Dec-09 03:33N 35°24' E 139°40'1 0.6
2014-Dec-09 02:33N 35°24' E 139°40'4 3.9
2014-Dec-09 01:33N 35°24' E 139°44'0 0.0
2014-Dec-09 00:33N 35°24' E 139°44'0 0.0
2014-Dec-08 23:33N 35°24' E 139°44'0 0.0
2014-Dec-08 22:33N 35°24' E 139°44'  
Track history (hours):
 
Tides and Currents Weather Stations Pressure Air Temp Water Temp Dewpoint Dewpoint Depression Visibility Wind Speed Wind Dir Waves Ship Positions

10chiemaru

Last reported at 2014-Dec-18 14:32 UTC. Time now 2014-Dec-22 06:22 UTC.
Position N 35°17' E 139°45'.

Length 72 m; draft 3.8 m.

Type: Ship. MMSI: 431000147.

Date/timePositionNaut miles runAvg speedWind from/ knotsBaromVisibWave heightAir tempDewpointWater temp
2014-Dec-18 14:32N 35°17' E 139°45'5 5.2
2014-Dec-18 13:33N 35°22' E 139°44'0 0.0
2014-Dec-18 12:33N 35°22' E 139°44'0 0.0
2014-Dec-18 11:33N 35°22' E 139°44'0 0.0
2014-Dec-18 10:33N 35°22' E 139°44'0 0.0
2014-Dec-18 09:33N 35°22' E 139°44'0 0.0
2014-Dec-18 08:33N 35°22' E 139°44'0 0.0
2014-Dec-18 07:33N 35°22' E 139°44'0 0.0
2014-Dec-18 06:33N 35°22' E 139°44'4 4.3
2014-Dec-18 05:33N 35°24' E 139°40'0 0.0
2014-Dec-18 04:33N 35°24' E 139°40'0 0.0
2014-Dec-18 03:33N 35°24' E 139°40'0 0.0
2014-Dec-18 02:33N 35°24' E 139°40'4 3.7
2014-Dec-18 01:34N 35°22' E 139°43'0 0.4
2014-Dec-18 00:33N 35°22' E 139°44'0 0.1
2014-Dec-17 23:33N 35°22' E 139°44'0 0.0
2014-Dec-17 22:33N 35°22' E 139°44'0 0.0
2014-Dec-17 21:30N 35°22' E 139°44'0 0.0
2014-Dec-17 20:33N 35°22' E 139°44'0 0.1
2014-Dec-17 19:34N 35°22' E 139°44'0 0.0
2014-Dec-17 18:33N 35°22' E 139°44'0 0.0
2014-Dec-17 17:32N 35°22' E 139°44'0 0.1
2014-Dec-17 16:33N 35°22' E 139°44'0 0.0
2014-Dec-17 15:33N 35°22' E 139°44'0 0.0
2014-Dec-17 14:32N 35°22' E 139°44'0 0.0
2014-Dec-17 13:28N 35°22' E 139°44'0 0.0
2014-Dec-17 12:33N 35°22' E 139°44'0 0.0
2014-Dec-17 11:32N 35°22' E 139°44'0 0.0
2014-Dec-17 10:34N 35°22' E 139°44'0 0.0
2014-Dec-17 09:33N 35°22' E 139°44'0 0.0
2014-Dec-17 08:32N 35°22' E 139°44'0 0.0
2014-Dec-17 07:33N 35°22' E 139°44'0 0.0
2014-Dec-17 06:33N 35°22' E 139°44'0 0.0
2014-Dec-17 05:33N 35°22' E 139°44'0 0.0
2014-Dec-17 04:28N 35°22' E 139°44'0 0.0
2014-Dec-17 03:34N 35°22' E 139°44'0 0.0
2014-Dec-17 02:33N 35°22' E 139°44'0 0.0
2014-Dec-17 01:34N 35°22' E 139°44'0 0.0
2014-Dec-17 00:32N 35°22' E 139°44'0 0.0
2014-Dec-16 23:33N 35°22' E 139°44'0 0.0
2014-Dec-16 22:33N 35°22' E 139°44'0 0.0
2014-Dec-16 21:34N 35°22' E 139°44'0 0.0
2014-Dec-16 20:33N 35°22' E 139°44'0 0.0
2014-Dec-16 19:33N 35°22' E 139°44'0 0.0
2014-Dec-16 18:26N 35°22' E 139°44'0 0.0
2014-Dec-16 17:33N 35°22' E 139°44'0 0.0
2014-Dec-16 16:32N 35°22' E 139°44'0 0.0
2014-Dec-16 15:32N 35°22' E 139°44'0 0.0
2014-Dec-16 14:33N 35°22' E 139°44'0 0.1
2014-Dec-16 13:31N 35°22' E 139°44'0 0.1
2014-Dec-16 12:33N 35°22' E 139°44'0 0.1
2014-Dec-16 11:33N 35°22' E 139°44'0 0.0
2014-Dec-16 10:32N 35°22' E 139°44'0 0.0
2014-Dec-16 09:32N 35°22' E 139°44'1 0.6
2014-Dec-16 08:34N 35°21' E 139°44'  
2014-Dec-09 12:18N 35°13' E 139°46'912.6
2014-Dec-09 11:33N 35°22' E 139°42'10 9.7
2014-Dec-09 10:33N 35°31' E 139°46'0 0.1
2014-Dec-09 09:33N 35°31' E 139°46'0 0.0
2014-Dec-09 08:33N 35°31' E 139°46'0 0.0
2014-Dec-09 07:27N 35°31' E 139°46'2 2.7
2014-Dec-09 06:33N 35°29' E 139°48'9 8.8
2014-Dec-09 05:33N 35°24' E 139°40'1 0.5
2014-Dec-09 04:33N 35°24' E 139°40'0 0.0
2014-Dec-09 03:33N 35°24' E 139°40'1 0.6
2014-Dec-09 02:33N 35°24' E 139°40'4 3.9
2014-Dec-09 01:33N 35°24' E 139°44'0 0.0
2014-Dec-09 00:33N 35°24' E 139°44'0 0.0
2014-Dec-08 23:33N 35°24' E 139°44'0 0.0
2014-Dec-08 22:33N 35°24' E 139°44'  

Dump ship's entire track history